Terminal Aerodrome Forecast
Issued by NWS Missoula, MT

Current Version | Previous Version | Text Only | Print | Product List | Glossary On
Versions: 1 2 3 4 5 6 7 8 9 10 11 12 13 14 15 16 17
000
FTUS45 KMSO 202340
TAFMSO
TAF
KMSO 202340Z 2100/2124 31003KT P6SM VCFG BKN060 OVC070
     FM210400 15008KT 3SM -RAPLSN BKN025 OVC040
     FM211100 19008KT 5SM -SHRA OVC040
     FM211700 27012KT P6SM -SHRA BKN040=

USA.gov is the U.S. government's official web portal to all federal, state and local government web resources and services.